Molengracht — PCJG — position and weather

sailwx.info

Track history (hours):
 
Tides and Currents Weather Stations Pressure Air Temp Water Temp Dewpoint Dewpoint Depression Visibility Wind Speed Wind Dir Waves Ship Positions

Molengracht

Last reported at 2014-Oct-09 02:13 UTC. Time now 2014-Nov-01 00:49 UTC.
Position N 01°15' E 104°05'.
Warning: this ship's position is 22 days out of date.

Length 143 m; draft 6.7 m.

Type: Cargo ship. MMSI: 246770000.

Date/timePositionNaut miles runAvg speedWind from/ knotsBaromVisibWave heightAir tempDewpointWater temp
2014-Oct-09 02:13N 01°15' E 104°05'811.4
2014-Oct-09 01:33N 01°13' E 103°58'7 0.7
2014-Oct-08 16:05N 01°07' E 103°54'0 0.0
2014-Oct-08 15:26N 01°07' E 103°54'0 0.1
2014-Oct-08 14:29N 01°07' E 103°54'0 0.1
2014-Oct-08 13:28N 01°07' E 103°54'0 0.0
2014-Oct-08 12:13N 01°07' E 103°54'0 0.1
2014-Oct-08 11:31N 01°07' E 103°54'0 0.0
2014-Oct-08 03:25N 01°07' E 103°54'0 0.1
2014-Oct-08 02:19N 01°07' E 103°54'3 1.5
2014-Oct-08 00:17N 01°10' E 103°55'1 1.4
2014-Oct-07 23:31N 01°11' E 103°56'6 6.3
2014-Oct-07 22:34N 01°11' E 103°50'3 3.0
2014-Oct-07 21:32N 01°14' E 103°49'0 0.0
2014-Oct-07 20:32N 01°14' E 103°49'0 0.0
2014-Oct-07 19:31N 01°14' E 103°49'0 0.1
2014-Oct-07 18:28N 01°14' E 103°49'0 0.0
2014-Oct-07 17:31N 01°14' E 103°49'0 0.1
2014-Oct-07 16:32N 01°14' E 103°49'0 0.0
2014-Oct-07 15:31N 01°14' E 103°49'0 0.1
2014-Oct-07 14:25N 01°14' E 103°49'0 0.0
2014-Oct-07 13:31N 01°14' E 103°49'0 0.1
2014-Oct-07 12:26N 01°14' E 103°49'0 0.0
2014-Oct-07 11:32N 01°14' E 103°49'0 0.0
2014-Oct-07 10:31N 01°14' E 103°49'0 0.1
2014-Oct-07 09:28N 01°14' E 103°49'0 0.1
2014-Oct-07 08:31N 01°14' E 103°49'0 0.0
2014-Oct-07 07:31N 01°14' E 103°49'0 0.1
2014-Oct-07 06:31N 01°14' E 103°49'0 0.1
2014-Oct-07 05:33N 01°14' E 103°49'1 1.1
2014-Oct-07 04:34N 01°13' E 103°50'7 6.6
2014-Oct-07 03:33N 01°14' E 103°56'11 9.7
2014-Oct-07 02:28N 01°16' E 104°06'  
2014-Oct-04 19:23S 06°08' E 113°35'4315.2
2014-Oct-04 16:33S 06°33' E 114°10'1515.4
2014-Oct-04 15:33S 06°42' E 114°22'1515.3
2014-Oct-04 14:33S 06°52' E 114°34'  
Track history (hours):
 
Tides and Currents Weather Stations Pressure Air Temp Water Temp Dewpoint Dewpoint Depression Visibility Wind Speed Wind Dir Waves Ship Positions

Molengracht

Last reported at 2014-Oct-09 02:13 UTC. Time now 2014-Nov-01 00:49 UTC.
Position N 01°15' E 104°05'.
Warning: this ship's position is 22 days out of date.

Length 143 m; draft 6.7 m.

Type: Cargo ship. MMSI: 246770000.

Date/timePositionNaut miles runAvg speedWind from/ knotsBaromVisibWave heightAir tempDewpointWater temp
2014-Oct-09 02:13N 01°15' E 104°05'811.4
2014-Oct-09 01:33N 01°13' E 103°58'7 0.7
2014-Oct-08 16:05N 01°07' E 103°54'0 0.0
2014-Oct-08 15:26N 01°07' E 103°54'0 0.1
2014-Oct-08 14:29N 01°07' E 103°54'0 0.1
2014-Oct-08 13:28N 01°07' E 103°54'0 0.0
2014-Oct-08 12:13N 01°07' E 103°54'0 0.1
2014-Oct-08 11:31N 01°07' E 103°54'0 0.0
2014-Oct-08 03:25N 01°07' E 103°54'0 0.1
2014-Oct-08 02:19N 01°07' E 103°54'3 1.5
2014-Oct-08 00:17N 01°10' E 103°55'1 1.4
2014-Oct-07 23:31N 01°11' E 103°56'6 6.3
2014-Oct-07 22:34N 01°11' E 103°50'3 3.0
2014-Oct-07 21:32N 01°14' E 103°49'0 0.0
2014-Oct-07 20:32N 01°14' E 103°49'0 0.0
2014-Oct-07 19:31N 01°14' E 103°49'0 0.1
2014-Oct-07 18:28N 01°14' E 103°49'0 0.0
2014-Oct-07 17:31N 01°14' E 103°49'0 0.1
2014-Oct-07 16:32N 01°14' E 103°49'0 0.0
2014-Oct-07 15:31N 01°14' E 103°49'0 0.1
2014-Oct-07 14:25N 01°14' E 103°49'0 0.0
2014-Oct-07 13:31N 01°14' E 103°49'0 0.1
2014-Oct-07 12:26N 01°14' E 103°49'0 0.0
2014-Oct-07 11:32N 01°14' E 103°49'0 0.0
2014-Oct-07 10:31N 01°14' E 103°49'0 0.1
2014-Oct-07 09:28N 01°14' E 103°49'0 0.1
2014-Oct-07 08:31N 01°14' E 103°49'0 0.0
2014-Oct-07 07:31N 01°14' E 103°49'0 0.1
2014-Oct-07 06:31N 01°14' E 103°49'0 0.1
2014-Oct-07 05:33N 01°14' E 103°49'1 1.1
2014-Oct-07 04:34N 01°13' E 103°50'7 6.6
2014-Oct-07 03:33N 01°14' E 103°56'11 9.7
2014-Oct-07 02:28N 01°16' E 104°06'  
2014-Oct-04 19:23S 06°08' E 113°35'4315.2
2014-Oct-04 16:33S 06°33' E 114°10'1515.4
2014-Oct-04 15:33S 06°42' E 114°22'1515.3
2014-Oct-04 14:33S 06°52' E 114°34'  

Dump ship's entire track history